createdAt,value
2023-02-14T00:04:51.015Z,66.40
2023-02-14T00:05:50.971Z,67.61
2023-02-14T00:06:51.016Z,69.53
2023-02-14T00:07:51.079Z,68.44
2023-02-14T00:08:51.128Z,70.42
2023-02-14T00:09:51.145Z,70.30
2023-02-14T00:10:51.162Z,70.04
2023-02-14T00:11:51.213Z,68.76
2023-02-14T00:12:51.225Z,69.94
2023-02-14T00:13:51.314Z,69.59
2023-02-14T00:14:51.330Z,70.95
2023-02-14T00:15:51.384Z,68.06
2023-02-14T00:16:51.373Z,69.01
2023-02-14T00:17:51.421Z,66.60
2023-02-14T00:18:51.438Z,71.70
2023-02-14T00:19:51.489Z,79.03
2023-02-14T00:20:51.531Z,83.06
2023-02-14T00:21:51.602Z,104.59
2023-02-14T00:22:51.595Z,118.84
2023-02-14T00:23:51.641Z,137.14
2023-02-14T00:24:51.659Z,146.35
2023-02-14T00:25:51.706Z,164.51
2023-02-14T00:26:51.740Z,171.75
2023-02-14T00:27:51.789Z,183.00
2023-02-14T00:28:51.843Z,185.13
2023-02-14T00:29:51.900Z,186.98
2023-02-14T00:30:51.993Z,186.27
2023-02-14T00:31:52.023Z,184.91
2023-02-14T00:32:51.960Z,184.50
2023-02-14T00:33:51.993Z,183.48
2023-02-14T00:34:52.032Z,183.16
2023-02-14T00:35:52.095Z,182.17
2023-02-14T00:36:52.114Z,179.21
2023-02-14T00:37:52.157Z,181.13
2023-02-14T00:38:52.213Z,179.96
2023-02-14T00:39:52.210Z,176.67
2023-02-14T00:40:52.260Z,174.54
2023-02-14T00:41:52.317Z,179.94
2023-02-14T00:42:52.347Z,179.01
2023-02-14T00:43:52.398Z,178.97
2023-02-14T00:44:52.445Z,180.60
2023-02-14T00:45:52.504Z,180.28
2023-02-14T00:46:52.551Z,179.18
2023-02-14T00:47:52.577Z,180.23
2023-02-14T00:48:52.606Z,181.09
2023-02-14T00:49:52.640Z,182.69
2023-02-14T00:50:52.701Z,180.63
2023-02-14T00:51:52.731Z,182.97
2023-02-14T00:52:52.762Z,179.90
2023-02-14T00:53:52.805Z,180.88
2023-02-14T00:54:52.842Z,176.63
2023-02-14T00:55:52.881Z,175.23
2023-02-14T00:56:52.949Z,174.61
2023-02-14T00:57:52.966Z,173.48
2023-02-14T00:58:53.000Z,172.70
2023-02-14T00:59:53.023Z,172.10
2023-02-14T01:00:53.127Z,169.14
2023-02-14T01:01:53.116Z,167.58
2023-02-14T01:02:53.340Z,168.33
2023-02-14T01:03:53.229Z,168.49
2023-02-14T01:04:53.238Z,169.80
2023-02-14T01:05:53.268Z,168.92
2023-02-14T01:06:53.320Z,169.09
2023-02-14T01:07:53.360Z,166.19
2023-02-14T01:08:53.399Z,164.25
2023-02-14T01:09:53.416Z,163.96
2023-02-14T01:10:53.502Z,163.30
2023-02-14T01:11:53.510Z,163.22
2023-02-14T01:12:53.556Z,161.68
2023-02-14T01:13:53.607Z,159.07
2023-02-14T01:14:53.611Z,160.61
2023-02-14T01:15:53.648Z,159.29
2023-02-14T01:16:53.728Z,155.37
2023-02-14T01:17:53.710Z,155.28
2023-02-14T01:18:53.799Z,155.53
2023-02-14T01:19:53.828Z,151.22
2023-02-14T01:20:53.881Z,152.13
2023-02-14T01:21:53.881Z,153.42
2023-02-14T01:22:53.919Z,151.69
2023-02-14T01:23:53.963Z,148.66
2023-02-14T01:24:54.006Z,146.74
2023-02-14T01:25:54.059Z,148.12
2023-02-14T01:26:54.108Z,147.95
2023-02-14T01:27:54.145Z,144.66
2023-02-14T01:28:54.179Z,147.51
2023-02-14T01:29:54.271Z,143.79
2023-02-14T01:30:54.318Z,140.20
2023-02-14T01:31:54.352Z,139.87
2023-02-14T01:32:54.333Z,139.13
2023-02-14T01:33:54.367Z,139.40
2023-02-14T01:34:54.405Z,140.87
2023-02-14T01:36:53.686Z,25.00
2023-02-14T01:37:53.692Z,25.00
2023-02-14T01:38:53.698Z,25.00
2023-02-14T01:39:53.708Z,25.00
2023-02-14T01:40:53.691Z,25.00
2023-02-14T01:41:53.665Z,26.96
2023-02-14T01:42:53.699Z,27.71
2023-02-14T01:43:53.676Z,26.19
2023-02-14T01:44:53.670Z,28.92
2023-02-14T01:45:53.703Z,26.51
2023-02-14T01:46:53.652Z,25.73
2023-02-14T01:47:53.654Z,28.15
2023-02-14T01:48:53.652Z,28.73
2023-02-14T01:49:53.642Z,26.13
2023-02-14T01:50:53.620Z,25.00
2023-02-14T01:51:53.625Z,30.00
2023-02-14T01:52:53.619Z,29.74
2023-02-14T02:01:53.601Z,29.89
2023-02-14T02:02:53.522Z,29.51
2023-02-14T02:03:53.521Z,28.88
2023-02-14T02:04:53.509Z,27.13
2023-02-14T02:05:53.530Z,25.17
2023-02-14T02:06:53.522Z,28.02
2023-02-14T02:07:53.491Z,31.12
2023-02-14T02:08:53.518Z,26.95
2023-02-14T02:09:53.462Z,26.12
2023-02-14T02:10:53.503Z,27.51
2023-02-14T02:11:53.487Z,26.61
2023-02-14T02:12:53.471Z,27.60
2023-02-14T02:13:53.462Z,27.33
2023-02-14T02:14:53.488Z,30.18
2023-02-14T02:15:53.463Z,28.06
2023-02-14T02:16:53.503Z,25.92
2023-02-14T02:17:53.424Z,27.17
2023-02-14T02:18:53.419Z,26.88
2023-02-14T02:19:53.413Z,29.40
2023-02-14T02:20:53.420Z,26.91
2023-02-14T02:21:53.376Z,30.21
2023-02-14T02:22:53.406Z,29.26
2023-02-14T02:23:53.428Z,28.05
2023-02-14T02:24:53.368Z,30.78
2023-02-14T02:25:53.453Z,29.71
2023-02-14T02:26:53.376Z,29.08
2023-02-14T02:27:53.356Z,26.00
2023-02-14T02:28:53.376Z,27.35
2023-02-14T02:29:53.401Z,29.13
2023-02-14T02:30:53.411Z,29.64
2023-02-14T02:31:53.494Z,29.74
2023-02-14T02:32:53.330Z,25.59
2023-02-14T02:33:53.331Z,28.35
2023-02-14T02:34:53.316Z,26.93
2023-02-14T02:35:53.361Z,26.60
2023-02-14T02:36:53.360Z,27.97
2023-02-14T02:37:53.435Z,26.86
2023-02-14T02:38:53.504Z,28.70
2023-02-14T02:39:53.561Z,27.72
2023-02-14T02:40:53.582Z,28.82
2023-02-14T02:41:53.596Z,28.85
2023-02-14T02:42:53.660Z,30.25
2023-02-14T02:43:53.709Z,31.14
2023-02-14T02:44:53.743Z,31.51
2023-02-14T02:45:53.847Z,27.19
2023-02-14T02:46:53.821Z,26.82
2023-02-14T02:47:53.869Z,26.86
2023-02-14T02:48:53.891Z,27.86
2023-02-14T02:49:53.972Z,28.40
2023-02-14T02:50:53.952Z,28.19
2023-02-14T02:51:54.034Z,29.58
2023-02-14T02:52:54.064Z,27.57
2023-02-14T02:53:54.118Z,27.41
2023-02-14T02:54:54.145Z,28.74
2023-02-14T02:55:54.163Z,28.54
2023-02-14T02:56:54.206Z,28.45
2023-02-14T02:57:54.249Z,26.33
2023-02-14T02:58:54.548Z,27.83
2023-02-14T02:59:54.318Z,28.00
2023-02-14T03:00:54.334Z,25.29
2023-02-14T03:01:54.406Z,28.16
2023-02-14T03:02:54.432Z,28.95
2023-02-14T03:03:54.475Z,27.90
2023-02-14T03:04:54.668Z,25.88
2023-02-14T03:05:54.534Z,28.61
2023-02-14T03:06:54.564Z,28.84
2023-02-14T03:07:54.641Z,26.89
2023-02-14T03:08:54.663Z,25.07
2023-02-14T03:09:54.684Z,25.03
2023-02-14T03:10:54.712Z,27.15
2023-02-14T03:11:54.757Z,26.63
2023-02-14T03:12:54.766Z,27.48
2023-02-14T03:13:54.792Z,26.66
2023-02-14T03:14:54.863Z,25.27
2023-02-14T03:15:55.007Z,28.86
2023-02-14T03:16:54.919Z,25.21
2023-02-14T03:17:54.924Z,29.61
2023-02-14T03:18:54.916Z,29.40
2023-02-14T03:19:54.974Z,28.43
2023-02-14T03:20:55.024Z,27.58
2023-02-14T03:21:55.043Z,28.91
2023-02-14T03:22:55.060Z,29.62
2023-02-14T03:23:55.077Z,25.70
2023-02-14T03:24:55.130Z,24.16
2023-02-14T03:25:55.119Z,31.58
2023-02-14T03:26:55.154Z,27.88
2023-02-14T03:27:55.189Z,26.77
2023-02-14T03:28:55.226Z,27.17
2023-02-14T03:29:55.280Z,28.16
2023-02-14T03:30:55.330Z,31.45
2023-02-14T03:31:55.384Z,30.28
2023-02-14T03:32:55.328Z,26.19
2023-02-14T03:33:55.390Z,29.27
2023-02-14T03:34:55.377Z,25.00
2023-02-14T03:35:55.397Z,31.37
2023-02-14T03:36:55.409Z,30.31
2023-02-14T03:37:55.475Z,30.25
2023-02-14T03:38:55.468Z,29.51
2023-02-14T03:39:55.510Z,31.12
2023-02-14T03:40:55.556Z,29.24
2023-02-14T03:41:55.568Z,28.64
2023-02-14T03:42:55.608Z,28.12
2023-02-14T03:43:55.646Z,26.74
2023-02-14T03:44:55.779Z,29.36
2023-02-14T03:45:55.754Z,26.02
2023-02-14T03:46:55.741Z,28.74
2023-02-14T03:47:55.739Z,28.12
2023-02-14T03:48:55.814Z,29.34
2023-02-14T03:49:55.819Z,26.35
2023-02-14T03:51:55.909Z,30.10
2023-02-14T03:52:55.934Z,30.56
2023-02-14T03:53:55.983Z,28.32
2023-02-14T03:54:56.001Z,28.57
2023-02-14T03:55:56.058Z,30.32
2023-02-14T03:56:56.063Z,25.52
2023-02-14T03:57:56.083Z,26.55
2023-02-14T03:58:56.121Z,30.50
2023-02-14T03:59:56.136Z,30.16
2023-02-14T04:00:56.178Z,30.67
2023-02-14T04:01:56.209Z,28.42
2023-02-14T04:02:56.394Z,26.33
2023-02-14T04:03:56.257Z,27.73
2023-02-14T04:04:56.267Z,25.00
2023-02-14T04:05:56.292Z,31.99
2023-02-14T04:06:56.314Z,31.86
2023-02-14T04:07:56.337Z,29.73
2023-02-14T04:08:56.403Z,32.69
2023-02-14T04:09:56.402Z,29.64
2023-02-14T04:10:56.502Z,29.56
2023-02-14T04:11:56.472Z,25.97
2023-02-14T04:12:56.451Z,30.10
2023-02-14T04:13:56.472Z,28.48
2023-02-14T04:14:56.551Z,25.00
2023-02-14T04:15:56.591Z,30.72
2023-02-14T04:16:56.573Z,28.85
2023-02-14T04:17:56.602Z,27.49
2023-02-14T04:18:56.615Z,28.64
2023-02-14T04:19:56.633Z,28.13
2023-02-14T04:20:56.711Z,32.06
2023-02-14T04:21:56.692Z,30.31
2023-02-14T04:22:56.714Z,27.71
2023-02-14T04:23:56.749Z,28.75
2023-02-14T04:24:56.743Z,29.04
2023-02-14T04:25:56.830Z,30.59
2023-02-14T04:26:56.830Z,30.29
2023-02-14T04:27:56.970Z,31.50
2023-02-14T04:28:56.880Z,26.09
2023-02-14T04:29:57.019Z,27.14
2023-02-14T04:30:57.108Z,30.26
2023-02-14T04:31:57.062Z,31.03
2023-02-14T04:32:56.991Z,28.91
2023-02-14T04:33:57.076Z,34.27
2023-02-14T04:34:57.076Z,29.27
2023-02-14T04:35:57.102Z,30.38
2023-02-14T04:36:57.135Z,30.71
2023-02-14T04:37:57.140Z,31.94
2023-02-14T04:38:57.217Z,30.37
2023-02-14T04:39:57.242Z,33.82
2023-02-14T04:40:57.535Z,26.67
2023-02-14T04:41:57.282Z,28.44
2023-02-14T04:42:57.317Z,29.14
2023-02-14T04:43:57.327Z,29.63
2023-02-14T04:44:57.331Z,28.60
2023-02-14T04:45:57.362Z,28.02
2023-02-14T04:46:57.367Z,29.81
2023-02-14T04:47:57.443Z,31.34
2023-02-14T04:48:57.416Z,29.73
2023-02-14T04:49:57.449Z,28.93
2023-02-14T04:50:57.581Z,31.44
2023-02-14T04:51:57.542Z,28.89
2023-02-14T04:52:57.566Z,28.01
2023-02-14T04:53:57.596Z,32.61
2023-02-14T04:54:57.585Z,30.03
2023-02-14T04:55:57.608Z,32.10
2023-02-14T04:56:57.601Z,30.50
2023-02-14T04:57:57.665Z,34.58
2023-02-14T04:58:57.652Z,28.48
2023-02-14T04:59:57.666Z,29.07
2023-02-14T05:00:58.129Z,29.85
2023-02-14T05:01:57.747Z,26.18
2023-02-14T05:02:57.749Z,29.98
2023-02-14T05:03:58.107Z,34.99
2023-02-14T05:04:57.798Z,32.88
2023-02-14T05:05:57.857Z,30.30
2023-02-14T05:06:57.913Z,29.02
2023-02-14T05:07:57.885Z,29.46
2023-02-14T05:08:57.961Z,30.03
2023-02-14T05:09:57.956Z,31.53
2023-02-14T05:10:58.240Z,28.76
2023-02-14T05:11:57.982Z,29.90
2023-02-14T05:12:58.059Z,27.52
2023-02-14T05:13:58.053Z,30.97
2023-02-14T05:14:58.070Z,31.09
2023-02-14T05:15:58.130Z,29.63
2023-02-14T05:16:58.161Z,28.22
2023-02-14T05:17:58.183Z,28.50
2023-02-14T05:18:58.227Z,29.52
2023-02-14T05:19:58.244Z,30.30
2023-02-14T05:20:58.655Z,29.45
2023-02-14T05:21:58.313Z,29.39
2023-02-14T05:22:58.323Z,31.43
2023-02-14T05:23:58.388Z,28.40
2023-02-14T05:24:58.440Z,29.02
2023-02-14T05:25:58.460Z,29.00
2023-02-14T05:26:58.525Z,29.53
2023-02-14T05:27:58.523Z,29.48
2023-02-14T05:28:58.578Z,30.45
2023-02-14T05:29:58.648Z,30.68
2023-02-14T05:30:59.222Z,28.11
2023-02-14T05:31:58.760Z,30.85
2023-02-14T05:32:58.725Z,26.91
2023-02-14T05:33:58.734Z,30.08
2023-02-14T05:35:00.951Z,32.71
2023-02-14T05:35:58.839Z,31.80
2023-02-14T05:36:58.838Z,28.84
2023-02-14T05:37:58.888Z,29.66
2023-02-14T05:38:58.926Z,27.46
2023-02-14T05:39:58.954Z,30.96
2023-02-14T05:40:59.376Z,29.84
2023-02-14T05:41:59.483Z,35.72
2023-02-14T05:42:59.138Z,33.49
2023-02-14T05:43:59.121Z,31.34
2023-02-14T05:44:59.157Z,31.15
2023-02-14T05:45:59.288Z,36.21
2023-02-14T05:46:59.250Z,36.06
2023-02-14T05:47:59.319Z,34.00
2023-02-14T05:48:59.339Z,36.69
2023-02-14T05:49:59.357Z,32.71
2023-02-14T05:50:59.615Z,34.18
2023-02-14T05:51:59.450Z,33.42
2023-02-14T05:52:59.490Z,38.18
2023-02-14T05:53:59.535Z,38.62
2023-02-14T05:54:59.578Z,36.31
2023-02-14T05:55:59.625Z,34.47
2023-02-14T05:56:59.619Z,37.67
2023-02-14T05:57:59.695Z,37.60
2023-02-14T05:58:59.755Z,39.35
2023-02-14T05:59:59.738Z,40.19
2023-02-14T06:02:19.585Z,25.00
2023-02-14T06:03:19.482Z,25.00
2023-02-14T06:04:19.564Z,25.00
2023-02-14T06:05:19.422Z,25.00
2023-02-14T06:06:19.419Z,25.00
2023-02-14T06:07:19.420Z,25.58
2023-02-14T06:08:19.414Z,27.41
2023-02-14T06:09:19.390Z,25.86
2023-02-14T06:10:19.410Z,25.94
2023-02-14T06:11:19.406Z,30.54
2023-02-14T06:12:19.383Z,26.25
2023-02-14T06:13:19.402Z,29.61
2023-02-14T06:14:19.396Z,31.58
2023-02-14T06:15:19.368Z,29.95
2023-02-14T06:16:19.409Z,28.49
2023-02-14T06:17:19.334Z,30.76
2023-02-14T06:18:19.342Z,29.31
2023-02-14T06:19:19.326Z,26.95
2023-02-14T06:20:19.339Z,28.34
2023-02-14T06:21:19.308Z,25.46
2023-02-14T06:22:19.315Z,28.27
2023-02-14T06:23:19.284Z,29.82
2023-02-14T06:24:19.326Z,29.26
2023-02-14T06:25:19.331Z,33.95
2023-02-14T06:26:19.284Z,27.49
2023-02-14T06:27:19.276Z,29.13
2023-02-14T06:28:19.268Z,27.00
2023-02-14T06:29:19.285Z,30.79
2023-02-14T06:30:19.305Z,29.29
2023-02-14T06:31:19.358Z,30.85
2023-02-14T06:32:19.259Z,29.56
2023-02-14T06:33:19.246Z,27.65
2023-02-14T06:34:19.238Z,27.61
2023-02-14T06:35:19.229Z,29.64
2023-02-14T06:36:19.250Z,27.86
2023-02-14T06:37:19.224Z,29.72
2023-02-14T06:38:19.212Z,33.25
2023-02-14T06:39:19.183Z,33.09
2023-02-14T06:40:19.236Z,32.17
2023-02-14T06:41:19.243Z,28.78
2023-02-14T06:42:19.252Z,29.70
2023-02-14T06:43:19.162Z,26.99
2023-02-14T06:44:19.156Z,30.83
2023-02-14T06:45:26.152Z,28.79
2023-02-14T06:46:19.175Z,29.20
2023-02-14T06:47:19.176Z,29.39
2023-02-14T06:48:19.147Z,30.63
2023-02-14T06:49:19.172Z,29.63
2023-02-14T06:50:19.126Z,32.02
2023-02-14T06:51:19.128Z,30.73
2023-02-14T06:52:19.137Z,30.73
2023-02-14T06:53:19.106Z,25.00
2023-02-14T06:54:19.178Z,28.42
2023-02-14T06:55:19.072Z,28.13
2023-02-14T06:56:19.068Z,29.86
2023-02-14T06:57:19.068Z,30.47
2023-02-14T06:58:19.084Z,25.53
2023-02-14T06:59:19.077Z,30.39
2023-02-14T07:00:19.054Z,30.89
2023-02-14T07:01:19.090Z,30.09
2023-02-14T07:02:19.135Z,28.57
2023-02-14T07:03:19.038Z,25.48
2023-02-14T07:04:19.019Z,25.00
2023-02-14T07:05:19.190Z,28.75
2023-02-14T07:06:19.016Z,28.58
2023-02-14T07:07:19.022Z,31.21
2023-02-14T07:08:19.004Z,28.58
2023-02-14T07:09:18.991Z,30.28
2023-02-14T07:10:18.981Z,28.83
2023-02-14T07:11:18.992Z,28.31
2023-02-14T07:12:18.975Z,30.21
2023-02-14T07:13:18.973Z,29.57
2023-02-14T07:14:18.996Z,29.49
2023-02-14T07:15:19.046Z,29.20
2023-02-14T07:16:19.101Z,29.52
2023-02-14T07:17:19.173Z,28.13
2023-02-14T07:18:19.238Z,30.35
2023-02-14T07:19:19.213Z,28.36
2023-02-14T07:20:19.237Z,33.91
2023-02-14T07:21:19.248Z,29.72
2023-02-14T07:22:19.299Z,29.85
2023-02-14T07:23:19.388Z,29.58
2023-02-14T07:24:19.429Z,26.81
2023-02-14T07:25:19.420Z,28.51
2023-02-14T07:26:19.471Z,29.74
2023-02-14T07:27:19.538Z,27.91
2023-02-14T07:28:19.553Z,28.72
2023-02-14T07:29:19.614Z,28.34
2023-02-14T07:30:19.680Z,29.46
2023-02-14T07:31:19.735Z,26.74
2023-02-14T07:32:20.009Z,27.51
2023-02-14T07:33:19.749Z,29.50
2023-02-14T07:34:19.778Z,30.98
2023-02-14T07:35:19.819Z,26.88
2023-02-14T07:36:19.915Z,35.17
2023-02-14T07:37:19.858Z,57.88
2023-02-14T07:38:19.865Z,133.41
2023-02-14T07:39:19.895Z,209.39
2023-02-14T07:40:19.979Z,281.90
2023-02-14T07:41:19.980Z,310.74
2023-02-14T07:42:19.974Z,337.34
2023-02-14T07:43:20.272Z,348.21
2023-02-14T07:44:20.080Z,350.06
2023-02-14T07:45:21.971Z,335.19
2023-02-14T07:46:20.190Z,318.96
2023-02-14T07:47:20.120Z,300.50
2023-02-14T07:48:20.204Z,281.57
2023-02-14T07:49:20.208Z,263.03
2023-02-14T07:50:20.215Z,248.37
2023-02-14T07:51:20.272Z,236.60
2023-02-14T07:52:20.335Z,214.94
2023-02-14T07:53:20.338Z,187.21
2023-02-14T07:54:20.469Z,164.73
2023-02-14T07:55:20.419Z,143.65
2023-02-14T07:56:20.444Z,129.37
2023-02-14T07:57:20.474Z,113.49
2023-02-14T07:58:20.505Z,101.50
2023-02-14T07:59:20.525Z,91.39
2023-02-14T08:00:20.589Z,82.82
2023-02-14T08:01:20.642Z,76.62
2023-02-14T08:02:20.649Z,70.53
2023-02-14T08:03:20.626Z,65.68
2023-02-14T08:04:20.706Z,61.32
2023-02-14T08:05:20.757Z,57.91
2023-02-14T08:06:20.755Z,52.79
2023-02-14T08:07:20.755Z,49.70
2023-02-14T08:08:20.800Z,48.00
2023-02-14T08:09:20.847Z,43.01
2023-02-14T08:10:21.160Z,41.13
2023-02-14T08:11:20.875Z,40.41
2023-02-14T08:12:20.892Z,37.55
2023-02-14T08:13:20.973Z,35.59
2023-02-14T08:14:21.024Z,33.80
2023-02-14T08:15:21.113Z,31.91
2023-02-14T08:16:21.169Z,32.20
2023-02-14T08:17:21.146Z,30.10
2023-02-14T08:18:21.192Z,28.81
2023-02-14T08:19:21.188Z,28.16
2023-02-14T08:20:21.293Z,26.96
2023-02-14T08:21:21.235Z,25.94
2023-02-14T08:22:21.192Z,25.77
2023-02-14T08:23:21.195Z,25.93
2023-02-14T08:24:21.212Z,25.40
2023-02-14T08:25:21.258Z,25.84
2023-02-14T08:26:21.230Z,26.54
2023-02-14T08:27:21.221Z,25.07
2023-02-14T08:28:21.259Z,25.00
2023-02-14T08:29:21.232Z,25.10
2023-02-14T08:30:21.327Z,25.00
2023-02-14T08:31:29.957Z,30.70
2023-02-14T08:32:22.370Z,29.42
2023-02-14T08:33:21.259Z,28.98
2023-02-14T08:34:21.233Z,24.54
2023-02-14T08:35:21.221Z,23.60
2023-02-14T08:36:21.208Z,22.76
2023-02-14T08:37:21.198Z,26.46
2023-02-14T08:38:21.258Z,27.15
2023-02-14T08:39:21.222Z,29.67
2023-02-14T08:40:21.220Z,26.61
2023-02-14T08:41:21.216Z,27.59
2023-02-14T08:42:21.219Z,29.55
2023-02-14T08:44:21.172Z,28.50
2023-02-14T08:45:21.204Z,28.12
2023-02-14T08:46:21.219Z,28.19
2023-02-14T08:47:21.185Z,28.97
2023-02-14T08:48:21.159Z,28.11
2023-02-14T08:50:21.134Z,29.45
2023-02-14T08:51:21.132Z,27.42
2023-02-14T08:52:21.128Z,26.14
2023-02-14T08:53:21.143Z,29.61
2023-02-14T08:56:21.182Z,29.27
2023-02-14T08:57:21.205Z,28.73
2023-02-14T08:58:21.316Z,28.83
2023-02-14T09:00:21.259Z,27.29
2023-02-14T09:01:21.346Z,28.05
2023-02-14T09:02:21.338Z,26.27
2023-02-14T09:04:21.505Z,26.95
2023-02-14T09:05:21.443Z,26.47
2023-02-14T09:06:21.514Z,26.67
2023-02-14T09:07:21.466Z,26.78
2023-02-14T09:08:21.536Z,26.07
2023-02-14T09:09:21.509Z,26.36
2023-02-14T09:10:21.987Z,26.65
2023-02-14T09:11:21.593Z,28.03
2023-02-14T09:12:21.595Z,27.52
2023-02-14T09:13:21.594Z,27.60
2023-02-14T09:14:21.607Z,25.30
2023-02-14T09:15:21.675Z,27.03
2023-02-14T09:16:21.727Z,25.92
2023-02-14T09:17:21.679Z,27.42
2023-02-14T09:18:21.708Z,27.51
2023-02-14T09:19:21.753Z,27.99
2023-02-14T09:20:21.706Z,27.19
2023-02-14T09:21:21.754Z,27.62
2023-02-14T09:22:21.746Z,27.70
2023-02-14T09:23:21.765Z,27.32
2023-02-14T09:24:21.751Z,27.40
2023-02-14T09:25:21.799Z,27.29
2023-02-14T09:26:21.775Z,26.47
2023-02-14T09:27:21.787Z,27.21
2023-02-14T09:28:21.900Z,27.06
2023-02-14T09:29:21.846Z,27.61
2023-02-14T09:30:21.958Z,26.37
2023-02-14T09:31:21.998Z,27.34
2023-02-14T09:32:21.979Z,27.39
2023-02-14T09:33:21.925Z,26.88
2023-02-14T09:34:21.927Z,27.58
2023-02-14T09:35:21.899Z,27.77
2023-02-14T09:36:21.894Z,27.18
2023-02-14T09:37:21.903Z,27.21
2023-02-14T09:38:21.921Z,26.24
2023-02-14T09:39:21.958Z,27.68
2023-02-14T09:40:21.997Z,27.15
2023-02-14T09:41:21.992Z,27.37
2023-02-14T09:42:21.990Z,27.26
2023-02-14T09:43:22.019Z,26.40
2023-02-14T09:44:22.011Z,26.41
2023-02-14T09:45:22.072Z,26.57
2023-02-14T09:46:22.136Z,26.26
2023-02-14T09:47:22.053Z,25.84
2023-02-14T09:48:22.048Z,25.82
2023-02-14T09:49:22.263Z,27.17
2023-02-14T09:50:22.101Z,27.42
2023-02-14T09:51:22.134Z,27.79
2023-02-14T09:52:22.116Z,26.63
2023-02-14T09:53:22.124Z,27.13
2023-02-14T09:54:22.188Z,26.53
2023-02-14T09:55:22.188Z,25.75
2023-02-14T09:56:22.188Z,28.25
2023-02-14T09:57:22.209Z,27.79
2023-02-14T09:58:22.207Z,28.60
2023-02-14T09:59:22.243Z,27.62
2023-02-14T10:00:22.282Z,26.66
2023-02-14T10:01:22.289Z,26.88
2023-02-14T10:02:22.339Z,26.13
2023-02-14T10:03:22.294Z,26.81
2023-02-14T10:04:22.289Z,26.92
2023-02-14T10:05:22.348Z,27.13
2023-02-14T10:06:22.314Z,26.98
2023-02-14T10:07:22.363Z,28.19
2023-02-14T10:08:22.412Z,27.58
2023-02-14T10:09:22.369Z,27.18
2023-02-14T10:10:22.459Z,27.46
2023-02-14T10:11:22.456Z,28.94
2023-02-14T10:12:22.465Z,28.04
2023-02-14T10:13:22.508Z,27.04
2023-02-14T10:14:22.517Z,27.75
2023-02-14T10:50:23.199Z,26.08
2023-02-14T10:51:23.246Z,25.86
2023-02-14T10:52:23.296Z,25.14
2023-02-14T10:53:23.268Z,25.00
2023-02-14T10:54:23.298Z,25.35
2023-02-14T10:55:32.010Z,26.46
2023-02-14T10:56:24.294Z,26.51
2023-02-14T10:57:23.266Z,26.01
2023-02-14T10:58:23.251Z,25.08
2023-02-14T10:59:23.266Z,24.52
2023-02-14T11:00:23.290Z,23.51
2023-02-14T11:01:23.296Z,25.57
2023-02-14T11:02:23.253Z,24.93
2023-02-14T11:03:23.317Z,26.53
2023-02-14T11:04:23.271Z,25.00
2023-02-14T11:05:23.222Z,25.08
2023-02-14T11:06:23.236Z,25.72
2023-02-14T11:07:23.238Z,25.72
2023-02-14T11:08:23.222Z,26.12
2023-02-14T11:09:23.206Z,27.21
2023-02-14T11:10:23.227Z,26.54
2023-02-14T11:11:23.225Z,26.10
2023-02-14T11:12:23.181Z,25.96
2023-02-14T11:13:23.188Z,25.69
2023-02-14T11:14:23.189Z,25.00
2023-02-14T11:15:23.189Z,25.86
2023-02-14T11:16:23.198Z,25.97
2023-02-14T11:21:23.183Z,27.01
2023-02-14T11:22:23.187Z,27.24
2023-02-14T11:23:23.162Z,26.09
2023-02-14T11:24:23.187Z,26.57
2023-02-14T11:25:23.215Z,25.92
2023-02-14T11:26:23.218Z,26.60
2023-02-14T11:27:23.219Z,27.04
2023-02-14T11:44:23.574Z,29.84
2023-02-14T11:45:23.565Z,30.84
2023-02-14T11:46:23.673Z,30.37
2023-02-14T11:47:23.606Z,30.32
2023-02-14T11:48:39.521Z,30.65
2023-02-14T11:51:23.610Z,30.17
2023-02-14T11:55:23.569Z,29.03
2023-02-14T11:56:23.566Z,30.91
2023-02-14T11:57:23.544Z,30.18
2023-02-14T11:58:23.583Z,29.51
2023-02-14T11:59:23.541Z,29.35
2023-02-14T12:04:23.520Z,28.81
2023-02-14T12:05:23.511Z,29.67
2023-02-14T12:06:23.515Z,29.15
2023-02-14T12:07:23.482Z,28.91
2023-02-14T12:08:23.498Z,28.52
2023-02-14T12:09:23.456Z,26.52
2023-02-14T12:10:23.451Z,27.83
2023-02-14T12:11:23.496Z,30.63
2023-02-14T12:12:23.450Z,29.34
2023-02-14T12:13:23.465Z,29.04
2023-02-14T12:14:23.500Z,29.41
2023-02-14T12:15:23.566Z,30.08
2023-02-14T12:16:23.558Z,30.61
2023-02-14T12:17:23.567Z,28.32
2023-02-14T12:36:24.035Z,28.86
2023-02-14T12:37:24.047Z,29.01
2023-02-14T12:45:24.215Z,30.38
2023-02-14T12:46:24.283Z,29.46
2023-02-14T12:47:24.287Z,26.34
2023-02-14T12:48:24.282Z,27.98
2023-02-14T12:55:24.481Z,29.01
2023-02-14T13:01:28.970Z,28.54
2023-02-14T13:02:25.745Z,28.55
2023-02-14T13:03:24.619Z,26.88
2023-02-14T13:04:24.615Z,26.45
2023-02-14T13:09:24.602Z,28.34
2023-02-14T13:10:24.579Z,27.15
2023-02-14T13:11:24.547Z,27.60
2023-02-14T13:12:24.564Z,25.36
2023-02-14T13:13:24.558Z,25.85
2023-02-14T13:14:24.570Z,27.65
2023-02-14T13:15:24.578Z,26.21
2023-02-14T13:16:24.664Z,26.47
2023-02-14T13:17:24.622Z,27.51
2023-02-14T13:18:24.669Z,27.12
2023-02-14T13:19:24.697Z,26.59
2023-02-14T13:20:24.732Z,28.00
2023-02-14T13:21:24.777Z,26.36
2023-02-14T13:22:24.784Z,26.00
2023-02-14T13:23:24.827Z,25.95
2023-02-14T13:24:24.847Z,27.33
2023-02-14T13:25:24.880Z,25.47
2023-02-14T13:26:24.919Z,26.73
2023-02-14T13:27:24.966Z,26.34
2023-02-14T13:28:24.984Z,26.70
2023-02-14T13:29:25.015Z,28.31
2023-02-14T13:30:25.155Z,26.67
2023-02-14T13:31:25.158Z,27.19
2023-02-14T13:32:25.147Z,27.02
2023-02-14T13:33:25.138Z,25.75
2023-02-14T13:34:25.211Z,25.60
2023-02-14T13:35:25.228Z,26.56
2023-02-14T13:36:25.278Z,25.91
2023-02-14T13:37:25.285Z,27.62
2023-02-14T13:38:25.344Z,28.16
2023-02-14T13:39:25.376Z,26.44
2023-02-14T13:40:25.405Z,25.90
2023-02-14T13:41:25.472Z,26.12
2023-02-14T13:42:25.771Z,27.39
2023-02-14T13:43:25.501Z,27.20
2023-02-14T13:44:25.550Z,27.96
2023-02-14T13:45:25.585Z,25.22
2023-02-14T13:46:25.652Z,26.80
2023-02-14T13:47:25.649Z,27.54
2023-02-14T13:48:25.671Z,26.90
2023-02-14T13:49:25.715Z,27.81
2023-02-14T13:50:25.781Z,26.84
2023-02-14T13:51:25.818Z,27.42
2023-02-14T13:52:26.083Z,25.15
2023-02-14T13:53:25.877Z,25.27
2023-02-14T13:54:25.962Z,26.54
2023-02-14T13:55:25.984Z,26.23
2023-02-14T13:56:26.022Z,28.28
2023-02-14T13:57:26.130Z,26.93
2023-02-14T13:58:26.152Z,27.21
2023-02-14T13:59:26.168Z,26.14
2023-02-14T14:00:26.216Z,29.48
2023-02-14T14:01:26.783Z,29.12
2023-02-14T14:02:28.318Z,29.23
2023-02-14T14:03:26.281Z,28.43
2023-02-14T14:04:26.301Z,27.75
2023-02-14T14:05:26.272Z,27.59
2023-02-14T14:06:26.296Z,25.54
2023-02-14T14:07:26.355Z,28.71
2023-02-14T14:08:26.256Z,29.11
2023-02-14T14:09:26.325Z,30.58
2023-02-14T14:10:26.232Z,29.82
2023-02-14T14:11:26.229Z,30.50
2023-02-14T14:12:26.226Z,31.34
2023-02-14T14:13:26.222Z,29.08
2023-02-14T14:14:26.202Z,30.34
2023-02-14T14:15:26.216Z,30.04
2023-02-14T14:16:26.221Z,31.48
2023-02-14T14:17:26.342Z,31.49
2023-02-14T14:18:26.187Z,31.00
2023-02-14T14:19:26.169Z,30.36
2023-02-14T14:20:26.180Z,30.62
2023-02-14T14:21:26.186Z,30.13
2023-02-14T14:22:26.153Z,30.27
2023-02-14T14:23:26.169Z,30.06
2023-02-14T14:24:26.176Z,31.21
2023-02-14T14:25:26.166Z,32.18
2023-02-14T14:26:26.110Z,30.30
2023-02-14T14:27:26.124Z,31.29
2023-02-14T14:28:26.118Z,29.64
2023-02-14T14:29:26.146Z,31.23
2023-02-14T14:30:26.133Z,30.19
2023-02-14T14:31:26.208Z,31.09
2023-02-14T14:32:26.126Z,29.70
2023-02-14T14:33:26.111Z,29.64
2023-02-14T14:34:26.110Z,31.58
2023-02-14T14:35:26.067Z,29.98
2023-02-14T14:36:26.080Z,30.08
2023-02-14T14:37:26.098Z,29.06
2023-02-14T14:38:26.099Z,30.99
2023-02-14T14:39:26.172Z,30.76
2023-02-14T14:40:26.191Z,31.18
2023-02-14T14:41:26.427Z,31.17
2023-02-14T14:42:26.297Z,31.63
2023-02-14T14:43:26.369Z,30.36
2023-02-14T14:44:26.449Z,30.84
2023-02-14T14:45:26.537Z,30.50
2023-02-14T14:46:26.555Z,30.13
2023-02-14T14:47:26.593Z,30.14
2023-02-14T14:48:26.687Z,29.51
2023-02-14T14:49:26.761Z,31.19
2023-02-14T14:50:26.798Z,29.93
2023-02-14T14:51:26.832Z,31.44
2023-02-14T14:52:26.949Z,30.07
2023-02-14T14:53:26.951Z,31.55
2023-02-14T14:54:27.040Z,30.15
2023-02-14T14:55:27.110Z,30.61